Time;durP1;ratioP1;P1;durP2;ratioP2;P2;SDS_P1;SDS_P2;PMS_P1;PMS_P2;Temp;Humidity;BMP_temperature;BMP_pressure;BME280_temperature;BME280_humidity;BME280_pressure;Samples;Min_cycle;Max_cycle;Signal;HPM_P1;HPM_P2
2023/04/02 00:02:22;;;;;;;0.70;0.55;;;;;;;;;;5098006;28;20285;-62
2023/04/02 00:05:17;;;;;;;0.60;0.60;;;;;;;;;;5098455;28;20305;-62
2023/04/02 00:07:48;;;;;;;0.40;0.40;;;;;;;;;;5098545;28;20211;-62
2023/04/02 00:10:26;;;;;;;0.68;0.68;;;;;;;;;;5097928;28;20203;-62
2023/04/02 00:13:04;;;;;;;0.52;0.52;;;;;;;;;;5097992;28;20275;-62
2023/04/02 00:15:32;;;;;;;0.63;0.60;;;;;;;;;;5077584;28;20296;-62
2023/04/02 00:17:59;;;;;;;0.82;0.70;;;;;;;;;;5077556;28;20307;-62
2023/04/02 00:20:28;;;;;;;1.15;0.63;;;;;;;;;;5077591;28;20204;-62
2023/04/02 00:22:57;;;;;;;0.63;0.60;;;;;;;;;;5077483;28;20228;-62
2023/04/02 00:25:27;;;;;;;0.40;0.40;;;;;;;;;;5077450;28;20211;-62
2023/04/02 00:27:54;;;;;;;0.50;0.50;;;;;;;;;;5077536;28;20501;-62
2023/04/02 00:30:22;;;;;;;0.60;0.60;;;;;;;;;;5077571;28;20204;-62
2023/04/02 00:32:49;;;;;;;0.50;0.50;;;;;;;;;;5077230;28;20314;-62
2023/04/02 00:35:19;;;;;;;0.60;0.60;;;;;;;;;;5077354;28;20212;-62
2023/04/02 00:37:48;;;;;;;0.57;0.57;;;;;;;;;;5077305;28;20204;-62
2023/04/02 00:40:20;;;;;;;1.05;0.70;;;;;;;;;;5077549;28;20287;-62
2023/04/02 00:42:48;;;;;;;0.60;0.60;;;;;;;;;;5077626;28;20323;-62
2023/04/02 00:45:19;;;;;;;0.60;0.60;;;;;;;;;;5077207;28;20715;-62
2023/04/02 00:47:46;;;;;;;0.60;0.60;;;;;;;;;;5077404;28;20214;-62
2023/04/02 00:50:20;;;;;;;0.60;0.60;;;;;;;;;;5077397;28;20557;-62
2023/04/02 00:52:49;;;;;;;0.57;0.57;;;;;;;;;;5076895;28;20200;-62
2023/04/02 00:55:21;;;;;;;0.60;0.60;;;;;;;;;;5077122;28;20465;-62
2023/04/02 00:57:50;;;;;;;0.60;0.60;;;;;;;;;;5076686;28;20232;-62
2023/04/02 01:00:20;;;;;;;0.50;0.50;;;;;;;;;;5077374;28;20204;-62
2023/04/02 01:03:03;;;;;;;0.50;0.50;;;;;;;;;;5077143;28;20228;-62
2023/04/02 01:05:34;;;;;;;0.57;0.55;;;;;;;;;;5076426;28;20606;-62
2023/04/02 01:08:08;;;;;;;0.70;0.70;;;;;;;;;;5077087;28;20204;-62
2023/04/02 01:10:46;;;;;;;0.50;0.50;;;;;;;;;;5076960;28;20215;-62
2023/04/02 01:13:18;;;;;;;0.63;0.63;;;;;;;;;;5076970;28;20202;-62
2023/04/02 01:15:48;;;;;;;0.52;0.50;;;;;;;;;;5077593;28;20483;-62
2023/04/02 01:18:25;;;;;;;0.65;0.65;;;;;;;;;;5077058;28;20265;-62
2023/04/02 01:21:00;;;;;;;0.80;0.70;;;;;;;;;;5077250;28;20200;-62
2023/04/02 01:23:33;;;;;;;0.60;0.60;;;;;;;;;;5077119;28;20239;-62
2023/04/02 01:26:05;;;;;;;0.50;0.50;;;;;;;;;;5076946;28;20227;-62
2023/04/02 01:28:35;;;;;;;0.60;0.50;;;;;;;;;;5077071;28;20483;-62
2023/04/02 01:31:04;;;;;;;0.60;0.60;;;;;;;;;;5077216;28;20250;-62
2023/04/02 01:33:34;;;;;;;0.60;0.60;;;;;;;;;;5076847;28;20287;-62
2023/04/02 01:36:05;;;;;;;0.60;0.60;;;;;;;;;;5078170;28;20287;-62
2023/04/02 01:38:35;;;;;;;0.60;0.60;;;;;;;;;;5081073;28;20235;-62
2023/04/02 01:41:07;;;;;;;0.80;0.80;;;;;;;;;;5080952;28;20214;-62
2023/04/02 01:43:38;;;;;;;0.60;0.60;;;;;;;;;;5080151;28;20663;-62
2023/04/02 01:46:20;;;;;;;0.50;0.50;;;;;;;;;;5087348;28;20526;-62
2023/04/02 01:48:49;;;;;;;0.60;0.60;;;;;;;;;;5120442;28;20198;-62
2023/04/02 01:51:26;;;;;;;2.28;0.63;;;;;;;;;;5121376;28;20205;-62
2023/04/02 01:53:54;;;;;;;0.60;0.60;;;;;;;;;;5121279;28;20585;-62
2023/04/02 01:56:21;;;;;;;0.63;0.60;;;;;;;;;;5120235;28;20799;-62
2023/04/02 01:58:49;;;;;;;0.60;0.60;;;;;;;;;;5119766;28;20203;-62
2023/04/02 02:01:18;;;;;;;0.60;0.60;;;;;;;;;;5120229;28;20535;-62
2023/04/02 02:03:46;;;;;;;0.60;0.60;;;;;;;;;;5119409;28;20223;-62
2023/04/02 02:06:15;;;;;;;0.70;0.70;;;;;;;;;;5119309;28;20279;-62
2023/04/02 02:08:46;;;;;;;0.80;0.70;;;;;;;;;;5119820;28;20210;-62
2023/04/02 02:11:15;;;;;;;0.50;0.50;;;;;;;;;;5119097;28;20294;-62
2023/04/02 02:13:46;;;;;;;0.50;0.50;;;;;;;;;;5119985;28;20298;-62
2023/04/02 02:16:17;;;;;;;0.60;0.60;;;;;;;;;;5118946;28;20246;-62
2023/04/02 02:18:47;;;;;;;0.65;0.60;;;;;;;;;;5119801;28;20203;-62
2023/04/02 02:21:19;;;;;;;0.60;0.60;;;;;;;;;;5105817;28;20226;-62
2023/04/02 02:23:46;;;;;;;0.55;0.55;;;;;;;;;;5098970;28;20323;-62
2023/04/02 02:26:14;;;;;;;0.60;0.60;;;;;;;;;;5098881;28;20596;-62
2023/04/02 02:28:44;;;;;;;0.70;0.70;;;;;;;;;;5099184;28;20243;-62
2023/04/02 02:31:17;;;;;;;0.50;0.50;;;;;;;;;;5099048;28;20777;-62
2023/04/02 02:33:47;;;;;;;0.60;0.60;;;;;;;;;;5098641;28;20500;-62
2023/04/02 02:36:21;;;;;;;0.50;0.50;;;;;;;;;;5098909;28;20213;-62
2023/04/02 02:38:52;;;;;;;0.50;0.50;;;;;;;;;;5109307;28;20277;-62
2023/04/02 02:41:23;;;;;;;0.50;0.50;;;;;;;;;;5106021;28;20576;-62
2023/04/02 02:43:53;;;;;;;0.50;0.50;;;;;;;;;;5098723;28;20607;-62
2023/04/02 02:46:22;;;;;;;0.50;0.50;;;;;;;;;;5098692;28;20200;-62
2023/04/02 02:48:52;;;;;;;0.30;0.30;;;;;;;;;;5098561;28;20580;-62
2023/04/02 02:51:24;;;;;;;0.50;0.50;;;;;;;;;;5097876;28;20250;-62
2023/04/02 02:53:54;;;;;;;0.60;0.60;;;;;;;;;;5097960;28;20204;-62
2023/04/02 02:56:23;;;;;;;0.50;0.50;;;;;;;;;;5059106;28;1250416;-62
2023/04/02 02:58:51;;;;;;;1.10;0.50;;;;;;;;;;5119074;28;20203;-62
2023/04/02 03:01:19;;;;;;;0.57;0.50;;;;;;;;;;5120236;28;20222;-62
2023/04/02 03:03:47;;;;;;;0.50;0.50;;;;;;;;;;5119571;28;20227;-62
2023/04/02 03:06:19;;;;;;;0.40;0.40;;;;;;;;;;5119487;28;20260;-62
2023/04/02 03:08:52;;;;;;;0.40;0.40;;;;;;;;;;5119629;28;20503;-62
2023/04/02 03:11:23;;;;;;;0.60;0.50;;;;;;;;;;5119645;28;20634;-62
2023/04/02 03:13:53;;;;;;;0.32;0.32;;;;;;;;;;5119544;28;20199;-62
2023/04/02 03:16:23;;;;;;;0.32;0.32;;;;;;;;;;5119367;28;20586;-62
2023/04/02 03:18:53;;;;;;;0.40;0.40;;;;;;;;;;5119343;28;20622;-62
2023/04/02 03:21:26;;;;;;;0.50;0.50;;;;;;;;;;5119457;28;20248;-62
2023/04/02 03:23:57;;;;;;;0.50;0.50;;;;;;;;;;5119091;28;20231;-62
2023/04/02 03:26:28;;;;;;;0.50;0.50;;;;;;;;;;5119319;28;20576;-62
2023/04/02 03:28:58;;;;;;;0.50;0.40;;;;;;;;;;5119134;28;20211;-62
2023/04/02 03:31:28;;;;;;;0.40;0.40;;;;;;;;;;5119146;28;20203;-62
2023/04/02 03:33:57;;;;;;;0.60;0.60;;;;;;;;;;5119101;28;20635;-62
2023/04/02 03:36:28;;;;;;;0.30;0.30;;;;;;;;;;5119525;28;20203;-62
2023/04/02 03:39:01;;;;;;;0.40;0.40;;;;;;;;;;5119236;28;20207;-62
2023/04/02 03:41:32;;;;;;;0.40;0.40;;;;;;;;;;5118796;28;20203;-62
2023/04/02 03:44:02;;;;;;;0.40;0.40;;;;;;;;;;5118677;28;20237;-62
2023/04/02 03:46:32;;;;;;;0.38;0.38;;;;;;;;;;5118888;28;20618;-62
2023/04/02 03:49:01;;;;;;;0.40;0.40;;;;;;;;;;5118981;28;20203;-62
2023/04/02 03:51:31;;;;;;;0.50;0.50;;;;;;;;;;5119220;28;20302;-62
2023/04/02 03:54:00;;;;;;;0.40;0.40;;;;;;;;;;5118464;28;20199;-61
2023/04/02 03:56:30;;;;;;;0.40;0.40;;;;;;;;;;5118794;28;20257;-61
2023/04/02 03:59:05;;;;;;;0.38;0.38;;;;;;;;;;5118238;28;20448;-61
2023/04/02 04:01:35;;;;;;;0.32;0.32;;;;;;;;;;5118792;28;20202;-61
2023/04/02 04:04:05;;;;;;;0.40;0.40;;;;;;;;;;5118681;28;20618;-61
2023/04/02 04:06:33;;;;;;;0.50;0.50;;;;;;;;;;5118472;28;20616;-61
2023/04/02 04:09:07;;;;;;;0.47;0.47;;;;;;;;;;5117737;28;20203;-61
2023/04/02 04:11:36;;;;;;;0.50;0.50;;;;;;;;;;5118742;28;20210;-61
2023/04/02 04:14:07;;;;;;;0.43;0.43;;;;;;;;;;5118245;28;20617;-61
2023/04/02 04:16:40;;;;;;;0.30;0.30;;;;;;;;;;5118299;28;20210;-61
2023/04/02 04:19:11;;;;;;;0.40;0.40;;;;;;;;;;5118187;28;20202;-61
2023/04/02 04:21:38;;;;;;;0.40;0.30;;;;;;;;;;5117730;28;20203;-62
2023/04/02 04:24:08;;;;;;;0.30;0.30;;;;;;;;;;5118348;28;20231;-62
2023/04/02 04:26:39;;;;;;;0.38;0.38;;;;;;;;;;5118346;28;20202;-62
2023/04/02 04:29:12;;;;;;;0.30;0.30;;;;;;;;;;5116854;28;20260;-62
2023/04/02 04:31:41;;;;;;;0.40;0.40;;;;;;;;;;5118639;28;20203;-62
2023/04/02 04:34:11;;;;;;;0.40;0.40;;;;;;;;;;5118345;28;20210;-62
2023/04/02 04:36:52;;;;;;;0.30;0.30;;;;;;;;;;5118224;28;20203;-62
2023/04/02 04:39:23;;;;;;;0.35;0.30;;;;;;;;;;5117957;28;20210;-62
2023/04/02 04:41:51;;;;;;;0.30;0.30;;;;;;;;;;5118510;28;20457;-62
2023/04/02 04:44:22;;;;;;;0.30;0.30;;;;;;;;;;5117729;28;20234;-62
2023/04/02 04:46:53;;;;;;;0.65;0.60;;;;;;;;;;5117846;28;20214;-62
2023/04/02 04:49:22;;;;;;;0.35;0.32;;;;;;;;;;5117544;28;20202;-62
2023/04/02 04:51:52;;;;;;;0.30;0.30;;;;;;;;;;5118145;28;20232;-62
2023/04/02 04:54:21;;;;;;;0.40;0.30;;;;;;;;;;5117976;28;20229;-62
2023/04/02 04:56:50;;;;;;;0.25;0.25;;;;;;;;;;5118026;28;20238;-62
2023/04/02 04:59:21;;;;;;;0.30;0.30;;;;;;;;;;5118060;28;20203;-62
2023/04/02 05:01:53;;;;;;;0.38;0.30;;;;;;;;;;5117781;28;20234;-62
2023/04/02 05:04:22;;;;;;;0.30;0.30;;;;;;;;;;5117395;28;20223;-62
2023/04/02 05:06:52;;;;;;;0.30;0.30;;;;;;;;;;5117901;28;20211;-62
2023/04/02 05:09:24;;;;;;;0.30;0.30;;;;;;;;;;5114128;28;20196;-62
2023/04/02 05:12:00;;;;;;;0.45;0.35;;;;;;;;;;5097141;28;20203;-62
2023/04/02 05:14:32;;;;;;;0.30;0.30;;;;;;;;;;5097335;28;20210;-62
2023/04/02 05:17:02;;;;;;;0.30;0.30;;;;;;;;;;5096708;28;20211;-62
2023/04/02 05:19:32;;;;;;;0.30;0.30;;;;;;;;;;5096871;28;20225;-62
2023/04/02 05:22:01;;;;;;;0.30;0.30;;;;;;;;;;5097412;28;20204;-62
2023/04/02 05:24:40;;;;;;;0.30;0.30;;;;;;;;;;5097378;28;20684;-62
2023/04/02 05:27:15;;;;;;;0.30;0.30;;;;;;;;;;5097226;28;20207;-62
2023/04/02 05:29:44;;;;;;;0.40;0.30;;;;;;;;;;5097209;28;20211;-62
2023/04/02 05:32:14;;;;;;;0.40;0.40;;;;;;;;;;5097782;28;20196;-62
2023/04/02 05:34:43;;;;;;;0.30;0.30;;;;;;;;;;5096801;28;20199;-62
2023/04/02 05:37:14;;;;;;;0.30;0.30;;;;;;;;;;5103373;28;20206;-62
2023/04/02 05:39:45;;;;;;;0.30;0.30;;;;;;;;;;5116694;28;20207;-62
2023/04/02 05:42:16;;;;;;;0.40;0.40;;;;;;;;;;5117130;28;20673;-62
2023/04/02 05:44:46;;;;;;;0.30;0.30;;;;;;;;;;5116856;28;20234;-62
2023/04/02 05:47:14;;;;;;;0.35;0.30;;;;;;;;;;5117562;28;20581;-62
2023/04/02 05:49:45;;;;;;;0.30;0.30;;;;;;;;;;5117123;28;20215;-62
2023/04/02 05:52:15;;;;;;;0.30;0.30;;;;;;;;;;5117124;28;20211;-62
2023/04/02 05:54:45;;;;;;;0.20;0.20;;;;;;;;;;5116658;28;20195;-62
2023/04/02 05:57:14;;;;;;;0.28;0.28;;;;;;;;;;5117276;28;20231;-61
2023/04/02 05:59:44;;;;;;;0.30;0.30;;;;;;;;;;5117406;28;20199;-64
2023/04/02 06:02:18;;;;;;;0.30;0.30;;;;;;;;;;5117337;28;20242;-62
2023/04/02 06:04:47;;;;;;;0.50;0.30;;;;;;;;;;5116896;28;20230;-62
2023/04/02 06:07:16;;;;;;;0.30;0.30;;;;;;;;;;5117197;28;20202;-62
2023/04/02 06:09:47;;;;;;;0.38;0.38;;;;;;;;;;5117225;28;20203;-62
2023/04/02 06:12:18;;;;;;;0.65;0.47;;;;;;;;;;5116866;28;20211;-62
2023/04/02 06:14:46;;;;;;;0.20;0.20;;;;;;;;;;5117244;28;20210;-62
2023/04/02 06:17:15;;;;;;;0.20;0.20;;;;;;;;;;5117269;28;20491;-62
2023/04/02 06:19:42;;;;;;;0.28;0.28;;;;;;;;;;5116674;28;20607;-62
2023/04/02 06:22:12;;;;;;;0.30;0.30;;;;;;;;;;5118513;28;20203;-62
2023/04/02 06:24:41;;;;;;;0.30;0.30;;;;;;;;;;5120576;28;20222;-62
2023/04/02 06:27:10;;;;;;;0.30;0.30;;;;;;;;;;5120084;28;20207;-62
2023/04/02 06:29:40;;;;;;;0.20;0.20;;;;;;;;;;5120371;28;20206;-62
2023/04/02 06:32:08;;;;;;;0.30;0.30;;;;;;;;;;5120800;28;20485;-62
2023/04/02 06:34:37;;;;;;;0.30;0.30;;;;;;;;;;5120407;28;20591;-62
2023/04/02 06:37:10;;;;;;;0.38;0.30;;;;;;;;;;5120963;28;20249;-62
2023/04/02 06:39:37;;;;;;;0.60;0.30;;;;;;;;;;5120424;28;20214;-62
2023/04/02 06:42:08;;;;;;;0.30;0.30;;;;;;;;;;5120561;28;20203;-62
2023/04/02 06:44:38;;;;;;;0.28;0.28;;;;;;;;;;5119950;28;20223;-62
2023/04/02 06:47:06;;;;;;;0.30;0.30;;;;;;;;;;5120148;28;20211;-62
2023/04/02 06:49:37;;;;;;;0.30;0.30;;;;;;;;;;5120203;28;20211;-62
2023/04/02 06:52:06;;;;;;;0.40;0.40;;;;;;;;;;5120311;28;20256;-62
2023/04/02 06:54:34;;;;;;;0.40;0.40;;;;;;;;;;5119463;28;20199;-62
2023/04/02 06:57:01;;;;;;;0.40;0.40;;;;;;;;;;5118435;28;20231;-62
2023/04/02 06:59:28;;;;;;;0.57;0.57;;;;;;;;;;5118836;28;20206;-62
2023/04/02 07:01:58;;;;;;;0.50;0.50;;;;;;;;;;5119742;28;20214;-62
2023/04/02 07:04:26;;;;;;;64.63;49.08;;;;;;;;;;5119889;28;20226;-62
2023/04/02 07:06:53;;;;;;;86.32;63.65;;;;;;;;;;5119769;28;20222;-62
2023/04/02 07:09:21;;;;;;;106.40;75.20;;;;;;;;;;5119670;28;20259;-62
2023/04/02 07:11:49;;;;;;;86.50;63.95;;;;;;;;;;5118958;28;20310;-62
2023/04/02 07:14:16;;;;;;;73.10;55.05;;;;;;;;;;5119016;28;20591;-62
2023/04/02 07:16:44;;;;;;;78.28;56.50;;;;;;;;;;5119712;28;20606;-62
2023/04/02 07:19:17;;;;;;;73.25;55.03;;;;;;;;;;5119513;28;20263;-62
2023/04/02 07:21:44;;;;;;;70.70;54.28;;;;;;;;;;5119231;28;20579;-62
2023/04/02 07:24:12;;;;;;;68.57;52.08;;;;;;;;;;5118829;28;20658;-62
2023/04/02 07:26:39;;;;;;;68.30;52.78;;;;;;;;;;5119081;28;20214;-62
2023/04/02 07:29:07;;;;;;;67.88;51.30;;;;;;;;;;5118647;28;20203;-62
2023/04/02 07:31:34;;;;;;;61.45;47.03;;;;;;;;;;5119346;28;20524;-62
2023/04/02 07:34:02;;;;;;;62.17;47.50;;;;;;;;;;5117971;28;20214;-62
2023/04/02 07:36:30;;;;;;;57.40;44.97;;;;;;;;;;5118073;28;20242;-62
2023/04/02 07:38:58;;;;;;;56.95;44.50;;;;;;;;;;5117903;28;20214;-62
2023/04/02 07:41:26;;;;;;;53.92;41.92;;;;;;;;;;5118148;28;20211;-62
2023/04/02 07:43:53;;;;;;;54.35;42.88;;;;;;;;;;5118407;28;20226;-62
2023/04/02 07:46:21;;;;;;;52.78;40.20;;;;;;;;;;5118947;28;20579;-62
2023/04/02 07:48:48;;;;;;;50.97;39.50;;;;;;;;;;5118561;28;20222;-62
2023/04/02 07:51:16;;;;;;;49.50;39.17;;;;;;;;;;5118093;28;20203;-61
2023/04/02 07:53:48;;;;;;;44.38;35.47;;;;;;;;;;5107657;28;20254;-61
2023/04/02 07:56:16;;;;;;;42.53;33.83;;;;;;;;;;5097878;28;20236;-61
2023/04/02 07:58:44;;;;;;;42.85;33.58;;;;;;;;;;5097747;28;20215;-61
2023/04/02 08:01:16;;;;;;;43.33;34.00;;;;;;;;;;5097927;28;20211;-61
2023/04/02 08:03:43;;;;;;;41.45;32.15;;;;;;;;;;5098134;28;20610;-61
2023/04/02 08:06:11;;;;;;;36.97;30.15;;;;;;;;;;5101826;28;20196;-61
2023/04/02 08:08:38;;;;;;;39.72;30.70;;;;;;;;;;5101546;28;20207;-61
2023/04/02 08:11:07;;;;;;;37.42;28.88;;;;;;;;;;5098054;28;20265;-61
2023/04/02 08:13:34;;;;;;;35.35;27.85;;;;;;;;;;5098056;28;20254;-61
2023/04/02 08:16:02;;;;;;;34.42;28.80;;;;;;;;;;5097492;28;20204;-61
2023/04/02 08:18:31;;;;;;;34.17;28.05;;;;;;;;;;5097546;28;20208;-61
2023/04/02 08:20:58;;;;;;;32.20;26.50;;;;;;;;;;5097096;28;20204;-61
2023/04/02 08:23:26;;;;;;;33.13;26.15;;;;;;;;;;5097414;28;20211;-61
2023/04/02 08:25:54;;;;;;;29.92;24.83;;;;;;;;;;5097314;28;20219;-61
2023/04/02 08:28:23;;;;;;;31.17;23.98;;;;;;;;;;5097443;28;20204;-61
2023/04/02 08:30:51;;;;;;;30.20;22.38;;;;;;;;;;5097528;28;20215;-61
2023/04/02 08:33:19;;;;;;;28.13;22.25;;;;;;;;;;5097050;28;20204;-61
2023/04/02 08:35:46;;;;;;;24.40;21.50;;;;;;;;;;5096981;28;20196;-61
2023/04/02 08:38:15;;;;;;;23.55;19.67;;;;;;;;;;5097589;28;20214;-61
2023/04/02 08:40:43;;;;;;;24.20;19.73;;;;;;;;;;5097148;28;20230;-61
2023/04/02 08:43:16;;;;;;;22.75;19.30;;;;;;;;;;5097210;28;20200;-61
2023/04/02 08:45:54;;;;;;;21.85;19.20;;;;;;;;;;5097322;28;20538;-61
2023/04/02 08:48:22;;;;;;;20.85;17.85;;;;;;;;;;5097403;28;20210;-61
2023/04/02 08:50:50;;;;;;;20.38;16.75;;;;;;;;;;5097258;28;20473;-61
2023/04/02 08:53:18;;;;;;;22.60;17.20;;;;;;;;;;5097037;28;20298;-61
2023/04/02 08:55:49;;;;;;;21.83;18.27;;;;;;;;;;5097091;28;20211;-61
2023/04/02 08:58:23;;;;;;;98.85;76.40;;;;;;;;;;5097024;28;20211;-61
2023/04/02 09:00:54;;;;;;;98.18;73.38;;;;;;;;;;5096222;28;20226;-61
2023/04/02 09:03:26;;;;;;;86.85;66.75;;;;;;;;;;5096644;28;20200;-61
2023/04/02 09:05:54;;;;;;;83.57;63.60;;;;;;;;;;5102063;28;20223;-61
2023/04/02 09:08:23;;;;;;;75.82;59.78;;;;;;;;;;5117490;28;20202;-61
2023/04/02 09:10:52;;;;;;;72.65;56.88;;;;;;;;;;5117105;28;20214;-61
2023/04/02 09:13:23;;;;;;;71.10;54.45;;;;;;;;;;5117159;28;20211;-61
2023/04/02 09:15:53;;;;;;;61.40;50.17;;;;;;;;;;5116673;28;20231;-61
2023/04/02 09:18:21;;;;;;;58.50;50.47;;;;;;;;;;5116566;28;20218;-61
2023/04/02 09:20:48;;;;;;;62.67;49.00;;;;;;;;;;5116441;28;20210;-61
2023/04/02 09:23:17;;;;;;;56.13;46.13;;;;;;;;;;5116535;28;20309;-62
2023/04/02 09:25:45;;;;;;;58.90;45.08;;;;;;;;;;5116913;28;20618;-62
2023/04/02 09:28:13;;;;;;;55.28;44.40;;;;;;;;;;5116852;28;20211;-62
2023/04/02 09:30:51;;;;;;;53.90;42.42;;;;;;;;;;5109655;28;20207;-62
2023/04/02 09:33:21;;;;;;;49.88;41.15;;;;;;;;;;5096375;28;20540;-62
2023/04/02 09:35:55;;;;;;;50.55;39.67;;;;;;;;;;5095987;28;20196;-62
2023/04/02 09:38:23;;;;;;;46.80;38.78;;;;;;;;;;5096600;28;20227;-62
2023/04/02 09:40:52;;;;;;;48.50;39.35;;;;;;;;;;5095578;28;20662;-62
2023/04/02 09:43:20;;;;;;;41.22;36.72;;;;;;;;;;5096043;28;20222;-62
2023/04/02 09:45:56;;;;;;;42.47;35.38;;;;;;;;;;5095459;28;20259;-62
2023/04/02 09:48:26;;;;;;;41.05;34.67;;;;;;;;;;5095935;28;20210;-62
2023/04/02 09:51:03;;;;;;;40.38;33.75;;;;;;;;;;5095701;28;20208;-62
2023/04/02 09:53:34;;;;;;;38.60;32.47;;;;;;;;;;5096348;28;20736;-62
2023/04/02 09:56:11;;;;;;;39.50;32.78;;;;;;;;;;5095428;28;20656;-62
2023/04/02 09:58:39;;;;;;;39.90;34.10;;;;;;;;;;5099201;28;20208;-62
2023/04/02 10:01:09;;;;;;;37.80;32.50;;;;;;;;;;5099320;28;20711;-62
2023/04/02 10:03:38;;;;;;;36.35;30.20;;;;;;;;;;5099440;28;20204;-62
2023/04/02 10:06:06;;;;;;;39.67;30.88;;;;;;;;;;5100338;28;20236;-62
2023/04/02 10:08:34;;;;;;;34.45;29.10;;;;;;;;;;5099624;28;20329;-62
2023/04/02 10:11:03;;;;;;;40.17;28.55;;;;;;;;;;5099139;28;20269;-62
2023/04/02 10:13:31;;;;;;;32.03;27.77;;;;;;;;;;5098854;28;20222;-62
2023/04/02 10:16:01;;;;;;;29.23;26.15;;;;;;;;;;5099361;28;20214;-62
2023/04/02 10:18:37;;;;;;;29.90;26.15;;;;;;;;;;5099274;28;20202;-62
2023/04/02 10:21:06;;;;;;;28.65;25.45;;;;;;;;;;5099446;28;20215;-62
2023/04/02 10:23:35;;;;;;;28.55;24.33;;;;;;;;;;5098917;28;20227;-62
2023/04/02 10:26:08;;;;;;;26.92;23.30;;;;;;;;;;5098768;28;20232;-62
2023/04/02 10:28:42;;;;;;;25.02;22.30;;;;;;;;;;5099560;28;20302;-62
2023/04/02 10:31:16;;;;;;;26.00;22.50;;;;;;;;;;5099650;28;20207;-62
2023/04/02 10:33:47;;;;;;;25.83;21.75;;;;;;;;;;5080121;28;20212;-62
2023/04/02 10:36:24;;;;;;;24.13;20.38;;;;;;;;;;5079363;28;20703;-62
2023/04/02 10:38:51;;;;;;;24.63;21.88;;;;;;;;;;5078491;28;20203;-62
2023/04/02 10:41:27;;;;;;;25.73;23.05;;;;;;;;;;5079281;28;20217;-62
2023/04/02 10:44:23;;;;;;;25.17;21.30;;;;;;;;;;5078235;28;20208;-62
2023/04/02 10:46:55;;;;;;;23.35;20.90;;;;;;;;;;5078367;28;20323;-62
2023/04/02 10:49:26;;;;;;;22.23;19.95;;;;;;;;;;5078392;28;20556;-62
2023/04/02 10:51:59;;;;;;;24.48;20.30;;;;;;;;;;5078393;28;20214;-62
2023/04/02 10:54:45;;;;;;;21.77;19.08;;;;;;;;;;5078680;28;20216;-62
2023/04/02 10:57:19;;;;;;;20.23;18.00;;;;;;;;;;5077922;28;20236;-62
2023/04/02 10:59:48;;;;;;;20.92;17.58;;;;;;;;;;5078275;28;20212;-62
2023/04/02 11:02:23;;;;;;;19.42;16.00;;;;;;;;;;5078665;28;20531;-62
2023/04/02 11:04:52;;;;;;;19.17;15.80;;;;;;;;;;5078432;28;20303;-62
2023/04/02 11:07:23;;;;;;;18.15;16.02;;;;;;;;;;5078127;28;20273;-62
2023/04/02 11:09:52;;;;;;;17.33;15.07;;;;;;;;;;5078732;28;20196;-62
2023/04/02 11:12:22;;;;;;;17.45;15.55;;;;;;;;;;5078260;28;20204;-62
2023/04/02 11:14:50;;;;;;;16.08;14.40;;;;;;;;;;5078208;28;20212;-62
2023/04/02 11:17:18;;;;;;;15.65;14.02;;;;;;;;;;5077998;28;20204;-62
2023/04/02 11:19:46;;;;;;;15.52;14.02;;;;;;;;;;5077945;28;20212;-62
2023/04/02 11:22:17;;;;;;;14.85;13.43;;;;;;;;;;5078247;28;20496;-62
2023/04/02 11:24:46;;;;;;;14.57;13.05;;;;;;;;;;5077136;28;20208;-62
2023/04/02 11:27:23;;;;;;;14.23;12.73;;;;;;;;;;5078482;28;20215;-62
2023/04/02 11:29:52;;;;;;;13.38;11.98;;;;;;;;;;5077374;28;20215;-62
2023/04/02 11:32:31;;;;;;;22.40;18.52;;;;;;;;;;5078562;28;20518;-62
2023/04/02 11:35:26;;;;;;;33.97;26.98;;;;;;;;;;5077764;28;20214;-62
2023/04/02 11:37:54;;;;;;;32.53;25.80;;;;;;;;;;5076512;28;20200;-62
2023/04/02 11:40:40;;;;;;;27.33;23.20;;;;;;;;;;5077501;28;20246;-62
2023/04/02 11:43:22;;;;;;;28.08;22.33;;;;;;;;;;5077213;28;20214;-62
2023/04/02 11:46:01;;;;;;;24.98;21.52;;;;;;;;;;5076757;28;20615;-62
2023/04/02 11:48:29;;;;;;;25.85;20.80;;;;;;;;;;5077164;28;20215;-62
2023/04/02 11:50:57;;;;;;;25.95;20.75;;;;;;;;;;5076014;28;20212;-62
2023/04/02 11:53:28;;;;;;;23.20;20.70;;;;;;;;;;5076230;28;20212;-62
2023/04/02 11:56:19;;;;;;;23.55;20.00;;;;;;;;;;5075790;28;20204;-62
2023/04/02 11:58:54;;;;;;;22.98;19.73;;;;;;;;;;5076972;28;20486;-62
2023/04/02 12:01:29;;;;;;;24.00;20.33;;;;;;;;;;5077383;28;20208;-62
2023/04/02 12:04:05;;;;;;;21.65;19.40;;;;;;;;;;5076845;28;20195;-62
2023/04/02 12:06:38;;;;;;;23.27;20.60;;;;;;;;;;5076725;28;20224;-62
2023/04/02 12:09:14;;;;;;;22.10;19.77;;;;;;;;;;5076754;28;20542;-62
2023/04/02 12:11:42;;;;;;;23.02;20.38;;;;;;;;;;5077293;28;20196;-62
2023/04/02 12:14:24;;;;;;;22.05;19.75;;;;;;;;;;5076904;28;20274;-62
2023/04/02 12:16:53;;;;;;;21.50;19.40;;;;;;;;;;5076633;28;20262;-62
2023/04/02 12:19:20;;;;;;;21.77;19.55;;;;;;;;;;5076177;28;20204;-62
2023/04/02 12:21:48;;;;;;;21.15;18.95;;;;;;;;;;5076219;28;20200;-62
2023/04/02 12:24:18;;;;;;;20.73;18.60;;;;;;;;;;5076547;28;20231;-62
2023/04/02 12:26:46;;;;;;;20.83;18.02;;;;;;;;;;5076135;28;20231;-62
2023/04/02 12:29:17;;;;;;;18.83;17.02;;;;;;;;;;5075742;28;20204;-62
2023/04/02 12:31:46;;;;;;;18.35;16.45;;;;;;;;;;5075749;28;20306;-62
2023/04/02 12:34:16;;;;;;;17.75;15.95;;;;;;;;;;5076703;28;20204;-62
2023/04/02 12:36:52;;;;;;;17.52;15.77;;;;;;;;;;5076774;28;20286;-62
2023/04/02 12:39:20;;;;;;;15.77;14.20;;;;;;;;;;5076964;28;20280;-62
2023/04/02 12:41:48;;;;;;;15.25;13.70;;;;;;;;;;5076588;28;20649;-62
2023/04/02 12:44:16;;;;;;;15.18;13.68;;;;;;;;;;5076165;28;20230;-62
2023/04/02 12:46:44;;;;;;;15.00;13.05;;;;;;;;;;5076106;28;20579;-62
2023/04/02 12:49:15;;;;;;;14.10;12.60;;;;;;;;;;5076379;28;20227;-62
2023/04/02 12:51:43;;;;;;;13.05;11.80;;;;;;;;;;5076549;28;20212;-62
2023/04/02 12:54:13;;;;;;;12.65;11.27;;;;;;;;;;5076251;28;20204;-62
2023/04/02 12:56:41;;;;;;;12.23;11.02;;;;;;;;;;5075626;28;20643;-62
2023/04/02 12:59:23;;;;;;;10.93;9.82;;;;;;;;;;5076059;28;20549;-62
2023/04/02 13:01:55;;;;;;;10.45;9.50;;;;;;;;;;5076055;28;20212;-62
2023/04/02 13:04:23;;;;;;;10.75;9.75;;;;;;;;;;5075893;28;20270;-62
2023/04/02 13:06:53;;;;;;;11.63;9.20;;;;;;;;;;5076080;28;20228;-62
2023/04/02 13:09:29;;;;;;;9.85;8.95;;;;;;;;;;5076405;28;20235;-62
2023/04/02 13:11:56;;;;;;;10.27;9.25;;;;;;;;;;5075096;28;20215;-62
2023/04/02 13:14:25;;;;;;;9.38;8.43;;;;;;;;;;5075513;28;20212;-62
2023/04/02 13:16:52;;;;;;;9.93;8.75;;;;;;;;;;5076114;28;20215;-62
2023/04/02 13:19:24;;;;;;;8.90;8.00;;;;;;;;;;5076262;28;20211;-62
2023/04/02 13:21:54;;;;;;;9.57;8.13;;;;;;;;;;5076326;28;20258;-62
2023/04/02 13:24:22;;;;;;;8.23;7.53;;;;;;;;;;5075680;28;20204;-62
2023/04/02 13:26:50;;;;;;;8.02;7.25;;;;;;;;;;5075775;28;20223;-62
2023/04/02 13:29:21;;;;;;;8.50;7.20;;;;;;;;;;5076470;28;20227;-62
2023/04/02 13:31:49;;;;;;;7.43;6.65;;;;;;;;;;5077484;28;20208;-62
2023/04/02 13:34:17;;;;;;;7.80;6.60;;;;;;;;;;5079823;28;20204;-60
2023/04/02 13:36:44;;;;;;;16.10;11.82;;;;;;;;;;5079631;28;20486;-60
2023/04/02 13:39:13;;;;;;;28.10;18.00;;;;;;;;;;5080057;28;20212;-60
2023/04/02 13:41:42;;;;;;;25.55;17.75;;;;;;;;;;5079370;28;20204;-60
2023/04/02 13:44:15;;;;;;;22.85;16.30;;;;;;;;;;5079759;28;20204;-60
2023/04/02 13:46:42;;;;;;;21.92;14.60;;;;;;;;;;5079835;28;20228;-60
2023/04/02 13:49:10;;;;;;;20.95;14.05;;;;;;;;;;5079252;28;20816;-59
2023/04/02 13:51:43;;;;;;;19.67;13.45;;;;;;;;;;5079872;28;20291;-59
2023/04/02 13:54:13;;;;;;;18.08;12.50;;;;;;;;;;5078833;28;20204;-61
2023/04/02 13:56:42;;;;;;;17.55;13.25;;;;;;;;;;5079235;28;20263;-61
2023/04/02 13:59:09;;;;;;;19.25;13.45;;;;;;;;;;5079532;28;20520;-61
2023/04/02 14:01:37;;;;;;;17.60;12.80;;;;;;;;;;5078974;28;20215;-61
2023/04/02 14:04:06;;;;;;;17.60;12.00;;;;;;;;;;5079025;28;20247;-62
2023/04/02 14:06:42;;;;;;;15.85;11.05;;;;;;;;;;5078987;28;20239;-62
2023/04/02 14:09:12;;;;;;;16.23;10.98;;;;;;;;;;5079558;28;20212;-62
2023/04/02 14:11:45;;;;;;;15.18;10.68;;;;;;;;;;5079748;28;20231;-62
2023/04/02 14:14:30;;;;;;;13.75;10.52;;;;;;;;;;5079290;28;20273;-62
2023/04/02 14:17:02;;;;;;;14.63;10.13;;;;;;;;;;5078751;28;20649;-62
2023/04/02 14:19:35;;;;;;;13.15;9.82;;;;;;;;;;5078735;28;20200;-62
2023/04/02 14:22:08;;;;;;;12.73;9.60;;;;;;;;;;5079637;28;20205;-62
2023/04/02 14:24:39;;;;;;;11.85;8.65;;;;;;;;;;5078058;28;20210;-62
2023/04/02 14:27:16;;;;;;;11.07;8.20;;;;;;;;;;5078764;28;20235;-62
2023/04/02 14:29:47;;;;;;;12.98;9.23;;;;;;;;;;5078409;28;20200;-62
2023/04/02 14:32:20;;;;;;;11.63;8.65;;;;;;;;;;5079443;28;20204;-62
2023/04/02 14:34:51;;;;;;;11.73;8.05;;;;;;;;;;5078902;28;20215;-62
2023/04/02 14:37:21;;;;;;;10.55;8.10;;;;;;;;;;5079136;28;20204;-62
2023/04/02 14:39:53;;;;;;;9.40;7.47;;;;;;;;;;5078223;28;20783;-62
2023/04/02 14:42:26;;;;;;;9.45;6.90;;;;;;;;;;5078174;28;20204;-62
2023/04/02 14:45:06;;;;;;;8.55;6.65;;;;;;;;;;5078784;28;20200;-62
2023/04/02 14:47:36;;;;;;;11.45;7.35;;;;;;;;;;5077707;28;20266;-62
2023/04/02 14:50:06;;;;;;;9.30;6.72;;;;;;;;;;5077745;28;20286;-62
2023/04/02 14:52:34;;;;;;;9.27;6.90;;;;;;;;;;5077674;28;20216;-62